Time;durP1;ratioP1;P1;durP2;ratioP2;P2;SDS_P1;SDS_P2;PMS_P1;PMS_P2;Temp;Humidity;BMP_temperature;BMP_pressure;BME280_temperature;BME280_humidity;BME280_pressure;Samples;Min_cycle;Max_cycle;Signal;HPM_P1;HPM_P2
2022/05/20 00:01:14;;;;;;;4.40;1.63;;;13.50;99.90;;;;;;5051998;28;20021;-72
2022/05/20 00:03:42;;;;;;;3.58;1.27;;;13.70;99.90;;;;;;5050317;28;20439;-66
2022/05/20 00:06:09;;;;;;;5.53;1.40;;;14.00;99.90;;;;;;5056882;28;20490;-66
2022/05/20 00:08:38;;;;;;;6.30;1.58;;;14.20;99.90;;;;;;5056534;28;20021;-70
2022/05/20 00:11:05;;;;;;;4.65;1.63;;;14.40;99.90;;;;;;5056757;28;20031;-67
2022/05/20 00:13:32;;;;;;;7.72;1.55;;;14.60;99.90;;;;;;5059350;28;20420;-72
2022/05/20 00:15:59;;;;;;;7.47;1.83;;;14.90;99.90;;;;;;5054225;28;20057;-66
2022/05/20 00:18:26;;;;;;;6.85;1.48;;;15.30;99.90;;;;;;5061219;28;20033;-65
2022/05/20 00:20:54;;;;;;;7.43;1.60;;;15.40;99.90;;;;;;5053424;28;20107;-66
2022/05/20 00:23:21;;;;;;;3.45;1.38;;;15.60;99.90;;;;;;5055234;28;20032;-69
2022/05/20 00:25:48;;;;;;;6.30;2.08;;;15.60;99.90;;;;;;5062682;28;20039;-69
2022/05/20 00:28:27;;;;;;;6.10;1.67;;;15.50;99.90;;;;;;5050065;28;20021;-66
2022/05/20 00:31:04;;;;;;;3.95;1.15;;;15.60;99.90;;;;;;5055516;28;20036;-71
2022/05/20 00:33:33;;;;;;;4.30;1.15;;;15.60;99.90;;;;;;5050428;28;20024;-66
2022/05/20 00:36:01;;;;;;;7.38;2.58;;;15.40;99.90;;;;;;5048149;28;20032;-65
2022/05/20 00:38:28;;;;;;;6.55;1.30;;;15.40;99.90;;;;;;5056291;28;20032;-66
2022/05/20 00:40:57;;;;;;;6.15;0.98;;;15.50;99.90;;;;;;5047593;28;20025;-65
2022/05/20 00:43:29;;;;;;;8.10;1.88;;;15.60;99.90;;;;;;5047026;28;20028;-65
2022/05/20 00:46:21;;;;;;;3.40;1.70;;;15.70;99.90;;;;;;5047658;28;20470;-71
2022/05/20 00:48:57;;;;;;;5.78;1.92;;;15.70;99.90;;;;;;5043550;28;20025;-66
2022/05/20 00:51:28;;;;;;;5.47;1.35;;;15.90;99.90;;;;;;5030926;28;20093;-66
2022/05/20 00:54:01;;;;;;;12.75;2.65;;;16.00;99.90;;;;;;5053436;28;20021;-66
2022/05/20 00:56:57;;;;;;;5.45;1.63;;;16.10;99.90;;;;;;5053286;28;20042;-65
2022/05/20 00:59:29;;;;;;;8.73;1.40;;;16.10;99.90;;;;;;5049780;28;20036;-69
2022/05/20 01:02:00;;;;;;;3.65;1.10;;;16.30;99.90;;;;;;5060084;28;20044;-66
2022/05/20 01:04:29;;;;;;;6.68;1.30;;;16.30;99.90;;;;;;5057490;28;20035;-69
2022/05/20 01:06:56;;;;;;;4.90;1.15;;;16.50;99.90;;;;;;5053503;28;20029;-65
2022/05/20 01:09:23;;;;;;;5.35;1.67;;;16.50;99.90;;;;;;5054717;28;20046;-68
2022/05/20 01:11:50;;;;;;;3.35;1.25;;;16.50;99.90;;;;;;5031082;28;20118;-65
2022/05/20 01:14:24;;;;;;;6.53;1.20;;;16.60;99.90;;;;;;5047265;28;20033;-65
2022/05/20 01:16:51;;;;;;;5.78;1.30;;;16.70;99.90;;;;;;5047648;28;20025;-72
2022/05/20 01:19:44;;;;;;;3.40;1.23;;;16.70;99.90;;;;;;5046306;28;20498;-68
2022/05/20 01:22:13;;;;;;;6.03;1.50;;;16.70;99.90;;;;;;5045452;28;20025;-72
2022/05/20 01:24:40;;;;;;;6.50;1.20;;;16.80;99.90;;;;;;4695623;28;9999850;-64
2022/05/20 01:27:07;;;;;;;4.68;1.20;;;16.90;99.90;;;;;;5049556;28;20065;-67
2022/05/20 01:29:34;;;;;;;6.63;1.55;;;16.90;99.90;;;;;;5053139;28;20498;-69
2022/05/20 01:32:01;;;;;;;8.23;1.33;;;17.00;99.90;;;;;;5047509;28;20121;-72
2022/05/20 01:34:28;;;;;;;6.47;1.30;;;17.00;99.90;;;;;;5047731;28;20203;-65
2022/05/20 01:36:55;;;;;;;4.78;1.40;;;17.00;99.90;;;;;;5044706;28;20123;-65
2022/05/20 01:39:22;;;;;;;4.30;1.15;;;17.10;99.90;;;;;;5045190;28;20400;-71
2022/05/20 01:42:01;;;;;;;6.60;1.48;;;17.00;99.90;;;;;;5048551;28;20032;-71
2022/05/20 01:44:38;;;;;;;3.33;1.38;;;17.00;99.90;;;;;;5048167;28;20032;-68
2022/05/20 01:47:29;;;;;;;4.10;1.25;;;17.10;99.90;;;;;;5048190;28;20184;-65
2022/05/20 01:50:06;;;;;;;6.65;1.30;;;17.00;99.90;;;;;;5047081;28;20025;-66
2022/05/20 01:52:33;;;;;;;5.03;1.40;;;16.90;99.90;;;;;;5048164;28;20045;-65
2022/05/20 01:55:21;;;;;;;3.63;1.13;;;16.90;99.90;;;;;;5047721;28;20022;-65
2022/05/20 01:57:52;;;;;;;6.20;1.42;;;16.80;99.90;;;;;;5047651;28;20391;-69
2022/05/20 02:00:27;;;;;;;3.38;1.20;;;16.70;99.90;;;;;;5047542;28;20031;-66
2022/05/20 02:03:29;;;;;;;6.93;1.13;;;16.60;99.90;;;;;;5044044;28;20144;-68
2022/05/20 02:06:02;;;;;;;4.35;1.15;;;16.60;99.90;;;;;;5047395;28;20031;-73
2022/05/20 02:08:37;;;;;;;3.53;1.42;;;16.60;99.90;;;;;;5047669;28;20032;-66
2022/05/20 02:11:10;;;;;;;4.47;1.10;;;16.60;99.90;;;;;;5043346;28;20383;-68
2022/05/20 02:13:41;;;;;;;4.40;1.27;;;16.60;99.90;;;;;;5050126;28;20024;-69
2022/05/20 02:16:40;;;;;;;3.65;0.80;;;16.50;99.90;;;;;;5030299;28;20138;-74
2022/05/20 02:19:14;;;;;;;5.38;1.25;;;16.50;99.90;;;;;;5042494;28;20037;-64
2022/05/20 02:21:45;;;;;;;3.60;0.82;;;16.60;99.90;;;;;;5022097;28;20021;-73
2022/05/20 02:24:16;;;;;;;4.85;1.48;;;16.60;99.90;;;;;;5047651;28;20275;-68
2022/05/20 02:26:51;;;;;;;5.75;1.25;;;16.50;99.90;;;;;;5044038;28;20049;-64
2022/05/20 02:29:24;;;;;;;3.88;1.13;;;16.60;99.90;;;;;;5047130;28;20059;-65
2022/05/20 02:32:04;;;;;;;4.05;0.90;;;16.60;99.90;;;;;;5047466;28;20475;-64
2022/05/20 02:34:34;;;;;;;4.13;1.30;;;16.60;99.90;;;;;;5036849;28;20044;-66
2022/05/20 02:37:19;;;;;;;4.03;1.20;;;16.60;99.90;;;;;;5036609;28;20503;-64
2022/05/20 02:39:46;;;;;;;4.93;1.42;;;16.50;99.90;;;;;;5048363;28;20029;-63
2022/05/20 05:46:31;;;;;;;5.78;1.70;;;17.20;99.90;;;;;;5069276;28;20111;-71
2022/05/20 05:48:58;;;;;;;4.70;1.45;;;17.00;99.90;;;;;;5059599;28;20404;-68
2022/05/20 05:51:26;;;;;;;6.40;1.35;;;16.80;99.90;;;;;;5088488;28;20024;-70
2022/05/20 05:53:53;;;;;;;5.57;1.52;;;16.60;99.90;;;;;;5086876;28;20459;-72
2022/05/20 05:56:20;;;;;;;6.80;2.08;;;16.50;99.90;;;;;;5075807;28;20032;-69
2022/05/20 05:58:47;;;;;;;4.45;1.50;;;16.40;99.90;;;;;;5083343;28;20109;-68
2022/05/20 06:01:15;;;;;;;6.35;1.90;;;16.30;99.90;;;;;;5076500;28;20127;-69
2022/05/20 06:03:42;;;;;;;4.82;1.10;;;16.10;99.90;;;;;;5088327;28;20035;-68
2022/05/20 06:06:09;;;;;;;4.63;1.48;;;16.10;99.90;;;;;;5084864;28;20024;-69
2022/05/20 06:08:36;;;;;;;4.70;1.50;;;16.10;99.90;;;;;;5084927;28;20031;-69
2022/05/20 06:11:03;;;;;;;9.07;2.00;;;16.10;99.90;;;;;;5084325;28;20020;-67
2022/05/20 06:13:31;;;;;;;6.55;2.20;;;16.00;99.90;;;;;;5085123;28;20419;-69
2022/05/20 06:15:58;;;;;;;3.83;1.50;;;16.00;99.90;;;;;;5085709;28;20518;-69
2022/05/20 06:18:26;;;;;;;6.75;1.85;;;16.00;99.90;;;;;;5085282;28;20501;-69
2022/05/20 06:20:53;;;;;;;5.07;1.75;;;16.00;99.90;;;;;;5086123;28;20023;-68
2022/05/20 06:23:20;;;;;;;4.47;1.42;;;16.00;99.90;;;;;;5077811;28;20509;-70
2022/05/20 06:25:48;;;;;;;6.35;1.60;;;16.00;99.90;;;;;;5075609;28;20486;-70
2022/05/20 06:28:17;;;;;;;2.90;1.27;;;15.90;99.90;;;;;;5064397;28;20432;-69
2022/05/20 06:30:45;;;;;;;3.28;1.17;;;15.80;99.90;;;;;;5081477;28;20036;-69
2022/05/20 06:33:13;;;;;;;3.88;2.20;;;15.80;99.90;;;;;;5079451;28;20536;-69
2022/05/20 06:41:10;;;;;;;7.97;2.63;;;15.70;99.90;;;;;;5086274;28;20084;-69
2022/05/20 06:43:38;;;;;;;7.22;2.50;;;15.60;99.90;;;;;;5082194;28;20032;-68
2022/05/20 06:46:05;;;;;;;4.75;2.40;;;15.50;99.90;;;;;;5085676;28;20440;-68
2022/05/20 06:48:42;;;;;;;5.05;2.55;;;15.50;99.90;;;;;;5068163;28;20040;-68
2022/05/20 06:51:11;;;;;;;5.72;2.20;;;15.30;99.90;;;;;;5067670;28;20035;-68
2022/05/20 06:53:38;;;;;;;8.68;2.58;;;15.10;99.90;;;;;;5065859;28;20078;-67
2022/05/20 06:56:05;;;;;;;5.13;2.33;;;15.00;99.90;;;;;;5066667;28;20033;-67
2022/05/20 06:58:32;;;;;;;8.02;2.35;;;14.80;99.90;;;;;;5066257;28;20017;-68
2022/05/20 07:01:00;;;;;;;7.13;3.28;;;14.70;99.90;;;;;;5065525;28;20479;-69
2022/05/20 07:03:27;;;;;;;10.45;2.70;;;14.70;99.90;;;;;;5067048;28;20036;-72
2022/05/20 07:05:54;;;;;;;6.32;2.55;;;14.50;99.90;;;;;;5067421;28;20491;-70
2022/05/20 07:08:22;;;;;;;9.55;2.88;;;14.40;99.90;;;;;;5065634;28;20059;-68
2022/05/20 07:10:49;;;;;;;5.38;2.25;;;14.40;99.90;;;;;;5065878;28;20066;-70
2022/05/20 07:13:16;;;;;;;4.82;2.55;;;14.30;99.90;;;;;;5065389;28;20039;-75
2022/05/20 07:15:43;;;;;;;10.43;3.13;;;14.20;99.90;;;;;;5065418;28;20090;-69
2022/05/20 07:18:10;;;;;;;5.43;2.33;;;14.20;99.90;;;;;;5065859;28;20112;-70
2022/05/20 07:20:37;;;;;;;9.60;4.25;;;14.20;99.90;;;;;;5066491;28;20016;-67
2022/05/20 07:23:04;;;;;;;7.63;3.60;;;14.10;99.90;;;;;;5063320;28;20028;-67
2022/05/20 07:25:33;;;;;;;12.07;3.92;;;14.10;99.90;;;;;;5067880;28;20024;-70
2022/05/20 07:28:00;;;;;;;6.53;3.47;;;14.10;99.90;;;;;;5066664;28;20042;-75
2022/05/20 07:30:27;;;;;;;8.27;5.03;;;14.10;99.90;;;;;;5048690;28;20399;-69
2022/05/20 07:32:55;;;;;;;13.13;5.30;;;14.20;99.90;;;;;;5066117;28;20024;-76
2022/05/20 07:35:23;;;;;;;16.25;9.30;;;14.20;99.90;;;;;;5066976;28;20016;-68
2022/05/20 07:37:51;;;;;;;9.75;5.10;;;14.30;99.90;;;;;;5065393;28;20036;-69
2022/05/20 07:40:19;;;;;;;9.68;3.00;;;14.30;99.90;;;;;;5066419;28;20020;-65
2022/05/20 07:42:46;;;;;;;9.40;3.67;;;14.30;99.90;;;;;;5067698;28;20143;-68
2022/05/20 07:45:15;;;;;;;7.68;4.78;;;14.30;99.90;;;;;;5065878;28;20059;-67
2022/05/20 07:47:44;;;;;;;11.68;6.15;;;14.40;99.90;;;;;;5064521;28;20051;-68
2022/05/20 07:50:13;;;;;;;9.77;3.92;;;14.20;99.90;;;;;;5057100;28;20028;-69
2022/05/20 07:55:36;;;;;;;11.25;4.72;;;14.20;99.90;;;;;;5063838;28;20485;-69
2022/05/20 07:58:07;;;;;;;7.45;3.75;;;14.30;99.90;;;;;;5066250;28;20032;-67
2022/05/20 08:00:35;;;;;;;10.02;3.78;;;14.20;99.90;;;;;;5065247;28;20487;-71
2022/05/20 08:03:02;;;;;;;8.05;4.15;;;14.20;99.90;;;;;;5064342;28;20037;-69
2022/05/20 08:05:31;;;;;;;9.85;3.78;;;14.30;99.90;;;;;;5064270;28;20108;-70
2022/05/20 08:08:01;;;;;;;6.07;3.38;;;14.40;99.90;;;;;;5064632;28;20115;-72
2022/05/20 08:10:30;;;;;;;9.57;3.55;;;14.50;99.90;;;;;;5065012;28;20051;-70
2022/05/20 08:12:58;;;;;;;13.45;3.95;;;14.60;99.90;;;;;;5065395;28;20032;-72
2022/05/20 08:15:25;;;;;;;10.80;2.75;;;14.80;99.90;;;;;;5066862;28;20024;-68
2022/05/20 08:17:53;;;;;;;9.60;3.13;;;14.80;99.90;;;;;;5063596;28;20025;-75
2022/05/20 08:20:25;;;;;;;12.77;3.63;;;14.60;99.90;;;;;;5063478;28;20047;-68
2022/05/20 08:22:56;;;;;;;15.45;3.17;;;14.50;99.90;;;;;;5064993;28;20028;-67
2022/05/20 08:25:25;;;;;;;5.72;1.95;;;14.30;99.90;;;;;;5063796;28;20529;-68
2022/05/20 08:27:53;;;;;;;7.57;2.10;;;14.20;99.90;;;;;;5066316;28;20128;-69
2022/05/20 08:30:29;;;;;;;9.05;2.60;;;14.10;99.90;;;;;;5064025;28;20067;-68
2022/05/20 08:32:56;;;;;;;8.55;3.55;;;14.00;99.90;;;;;;5061723;28;20036;-69
2022/05/20 08:35:26;;;;;;;7.22;2.63;;;13.90;99.90;;;;;;5065630;28;20016;-70
2022/05/20 08:37:54;;;;;;;6.20;2.70;;;13.90;99.90;;;;;;5065892;28;20066;-67
2022/05/20 08:40:34;;;;;;;14.73;2.92;;;13.80;99.90;;;;;;5065673;28;20429;-70
2022/05/20 08:43:02;;;;;;;9.07;2.33;;;13.90;99.90;;;;;;5064773;28;20116;-68
2022/05/20 08:45:31;;;;;;;9.52;3.38;;;14.00;99.90;;;;;;5058069;28;20032;-75
2022/05/20 08:47:58;;;;;;;9.65;3.97;;;13.90;99.90;;;;;;5065434;28;20418;-69
2022/05/20 08:50:27;;;;;;;14.25;4.18;;;13.90;99.90;;;;;;5069680;28;20028;-72
2022/05/20 08:52:58;;;;;;;15.00;10.73;;;13.80;99.90;;;;;;5071434;28;20033;-67
2022/05/20 08:55:25;;;;;;;11.55;4.22;;;13.70;99.90;;;;;;5069389;28;20510;-72
2022/05/20 08:58:01;;;;;;;9.40;4.18;;;13.70;99.90;;;;;;5072249;28;20025;-70
2022/05/20 09:00:29;;;;;;;7.40;3.25;;;13.80;99.90;;;;;;4719022;28;10000134;-68
2022/05/20 09:02:56;;;;;;;7.30;3.63;;;13.80;99.90;;;;;;5069327;28;20029;-68
2022/05/20 09:05:30;;;;;;;7.97;3.38;;;13.80;99.90;;;;;;5068858;28;20021;-70
2022/05/20 09:08:01;;;;;;;6.47;2.58;;;13.80;99.90;;;;;;5069105;28;20021;-70
2022/05/20 09:10:33;;;;;;;7.32;3.13;;;13.70;99.90;;;;;;5069474;28;20023;-66
2022/05/20 09:13:20;;;;;;;9.57;2.42;;;13.70;99.90;;;;;;5052670;28;20118;-66
2022/05/20 09:16:05;;;;;;;8.77;2.65;;;13.80;99.90;;;;;;5070149;28;20032;-74
2022/05/20 09:18:36;;;;;;;7.65;3.00;;;13.80;99.90;;;;;;5067994;28;20025;-72
2022/05/20 09:21:04;;;;;;;7.45;2.63;;;13.80;99.90;;;;;;5069101;28;20024;-74
2022/05/20 09:23:32;;;;;;;6.22;2.70;;;13.70;99.90;;;;;;5049966;28;20024;-72
2022/05/20 09:26:11;;;;;;;8.88;2.67;;;13.60;99.90;;;;;;5066624;28;20031;-66
2022/05/20 09:28:51;;;;;;;6.60;2.67;;;13.60;99.90;;;;;;5067464;28;20565;-67
2022/05/20 09:31:33;;;;;;;7.50;2.95;;;13.70;99.90;;;;;;5066708;28;20020;-69
2022/05/20 09:34:27;;;;;;;9.40;2.65;;;13.70;99.90;;;;;;5068214;28;20051;-67
2022/05/20 09:36:55;;;;;;;7.75;2.47;;;13.60;99.90;;;;;;5066895;28;20111;-71
2022/05/20 09:39:37;;;;;;;5.72;1.80;;;13.70;99.90;;;;;;5068587;28;20020;-71
2022/05/20 09:42:19;;;;;;;7.13;2.00;;;13.60;99.90;;;;;;5068431;28;20041;-70
2022/05/20 09:44:53;;;;;;;8.10;2.00;;;13.70;99.90;;;;;;5069572;28;20123;-70
2022/05/20 09:47:23;;;;;;;5.18;1.77;;;13.70;99.90;;;;;;5069471;28;20262;-71
2022/05/20 09:50:03;;;;;;;5.07;2.17;;;13.70;99.90;;;;;;5068840;28;20116;-70
2022/05/20 09:52:33;;;;;;;9.73;2.72;;;13.70;99.90;;;;;;5068865;28;20029;-67
2022/05/20 09:55:11;;;;;;;6.40;2.55;;;13.70;99.90;;;;;;5069177;28;20081;-70
2022/05/20 09:57:48;;;;;;;5.82;1.65;;;13.60;99.90;;;;;;5070580;28;20577;-70
2022/05/20 10:00:26;;;;;;;7.18;2.13;;;13.60;99.90;;;;;;5068102;28;20071;-70
2022/05/20 10:03:05;;;;;;;6.55;2.55;;;13.70;99.90;;;;;;5066608;28;20041;-69
2022/05/20 10:05:38;;;;;;;6.90;2.35;;;13.70;99.90;;;;;;5066058;28;20043;-71
2022/05/20 10:08:29;;;;;;;10.65;2.35;;;13.60;99.90;;;;;;5066107;28;20095;-70
2022/05/20 10:11:03;;;;;;;4.63;2.30;;;13.60;99.90;;;;;;5065681;28;20494;-72
2022/05/20 10:13:54;;;;;;;5.88;2.53;;;13.50;99.90;;;;;;5066103;28;20033;-72
2022/05/20 10:16:45;;;;;;;10.10;2.45;;;13.50;99.90;;;;;;5065950;28;20115;-68
2022/05/20 10:19:36;;;;;;;7.90;2.22;;;13.50;99.90;;;;;;5062206;28;20025;-70
2022/05/20 10:22:39;;;;;;;10.27;2.85;;;13.40;99.90;;;;;;5062517;28;20111;-69
2022/05/20 10:25:30;;;;;;;7.70;2.22;;;13.50;99.90;;;;;;5062391;28;20017;-71
2022/05/20 10:34:21;;;;;;;8.50;3.97;;;13.50;99.90;;;;;;5063631;28;20043;-68
2022/05/20 10:37:03;;;;;;;6.22;2.78;;;13.40;99.90;;;;;;5062742;28;20040;-67
2022/05/20 10:40:06;;;;;;;5.17;2.03;;;13.40;99.90;;;;;;5063019;28;20020;-72
2022/05/20 10:42:41;;;;;;;9.98;2.63;;;13.30;99.90;;;;;;5061695;28;20091;-71
2022/05/20 10:48:34;;;;;;;8.68;2.25;;;13.20;99.90;;;;;;5060703;28;20078;-70
2022/05/20 10:51:04;;;;;;;8.27;2.45;;;13.20;99.90;;;;;;5062598;28;20236;-71
2022/05/20 10:53:52;;;;;;;6.35;2.30;;;13.10;99.90;;;;;;5064290;28;20021;-70
2022/05/20 10:56:23;;;;;;;5.05;2.30;;;13.20;99.90;;;;;;5062017;28;20032;-70
2022/05/20 10:59:11;;;;;;;6.40;2.58;;;13.00;99.90;;;;;;5064425;28;20060;-70
2022/05/20 11:01:40;;;;;;;5.60;2.08;;;13.00;99.90;;;;;;5061941;28;20048;-66
2022/05/20 11:04:30;;;;;;;5.25;1.80;;;12.90;99.90;;;;;;5063341;28;20485;-67
2022/05/20 11:07:45;;;;;;;6.45;2.45;;;12.80;99.90;;;;;;5066178;28;20108;-67
2022/05/20 11:10:27;;;;;;;5.32;2.38;;;12.80;99.90;;;;;;5018826;28;20374;-70
2022/05/20 11:13:11;;;;;;;7.88;2.45;;;12.90;99.90;;;;;;5015172;28;20052;-71
2022/05/20 11:15:50;;;;;;;8.10;2.47;;;12.80;99.90;;;;;;5021436;28;20055;-68
2022/05/20 11:18:43;;;;;;;6.80;2.53;;;12.80;99.90;;;;;;5015867;28;20072;-67
2022/05/20 11:21:13;;;;;;;3.70;2.20;;;12.80;99.90;;;;;;4951966;28;20538;-66
2022/05/20 11:23:56;;;;;;;5.28;2.50;;;12.70;99.90;;;;;;4952799;28;20129;-67
2022/05/20 11:26:58;;;;;;;5.70;1.90;;;12.70;99.90;;;;;;4950604;28;20149;-67
2022/05/20 11:30:02;;;;;;;6.65;2.45;;;12.70;99.90;;;;;;4949670;28;20042;-71
2022/05/20 11:33:10;;;;;;;7.72;2.85;;;12.80;99.90;;;;;;4953814;28;20151;-71
2022/05/20 11:35:48;;;;;;;8.00;2.83;;;12.80;99.90;;;;;;4954801;28;20393;-68
2022/05/20 11:38:24;;;;;;;6.75;2.85;;;12.90;99.90;;;;;;4950757;28;20050;-72
2022/05/20 11:40:52;;;;;;;7.43;2.28;;;13.00;99.90;;;;;;4955071;28;20114;-69
2022/05/20 11:43:25;;;;;;;6.85;2.47;;;12.90;99.90;;;;;;4954172;28;20509;-71
2022/05/20 11:46:11;;;;;;;8.07;2.83;;;13.00;99.90;;;;;;4981469;28;20042;-68
2022/05/20 11:48:59;;;;;;;7.65;2.90;;;12.90;99.90;;;;;;4978730;28;20505;-67
2022/05/20 11:51:32;;;;;;;4.22;2.33;;;13.00;99.90;;;;;;4995014;28;20045;-70
2022/05/20 11:54:11;;;;;;;6.80;2.83;;;12.90;99.90;;;;;;4997778;28;20037;-70
2022/05/20 11:56:43;;;;;;;6.28;2.72;;;12.90;99.90;;;;;;4996582;28;20029;-67
2022/05/20 11:59:27;;;;;;;6.95;2.65;;;13.00;99.90;;;;;;5053293;28;20563;-67
2022/05/20 12:01:58;;;;;;;4.55;2.25;;;12.90;99.90;;;;;;5060767;28;20074;-71
2022/05/20 12:04:28;;;;;;;8.65;2.50;;;12.90;99.90;;;;;;5060450;28;20039;-68
2022/05/20 12:07:07;;;;;;;4.32;2.10;;;12.80;99.90;;;;;;5059040;28;20029;-69
2022/05/20 12:09:55;;;;;;;6.03;3.70;;;12.80;99.90;;;;;;5060477;28;20028;-68
2022/05/20 12:12:33;;;;;;;8.95;2.92;;;12.80;99.90;;;;;;5059616;28;20036;-69
2022/05/20 12:15:09;;;;;;;6.75;3.00;;;12.90;99.90;;;;;;5060220;28;20379;-71
2022/05/20 12:17:46;;;;;;;9.18;2.75;;;13.00;99.90;;;;;;5060480;28;20031;-69
2022/05/20 12:26:00;;;;;;;7.28;2.38;;;12.90;99.90;;;;;;5060826;28;20111;-68
2022/05/20 12:28:27;;;;;;;7.28;1.98;;;12.90;99.90;;;;;;5060572;28;20044;-68
2022/05/20 12:31:06;;;;;;;8.43;2.40;;;12.90;99.90;;;;;;5060269;28;20064;-71
2022/05/20 12:34:03;;;;;;;4.63;2.38;;;12.90;99.90;;;;;;5041911;28;20052;-69
2022/05/20 12:36:30;;;;;;;5.97;2.30;;;12.90;99.90;;;;;;5040940;28;20036;-68
2022/05/20 12:39:10;;;;;;;7.70;2.60;;;12.90;99.90;;;;;;5041618;28;20123;-72
2022/05/20 12:41:42;;;;;;;3.53;1.80;;;12.90;99.90;;;;;;5055918;28;20040;-68
2022/05/20 12:44:19;;;;;;;4.38;1.83;;;13.00;99.90;;;;;;5033945;28;20016;-71
2022/05/20 12:47:13;;;;;;;4.80;2.13;;;13.00;99.90;;;;;;5061467;28;20115;-72
2022/05/20 12:49:46;;;;;;;7.72;2.17;;;13.00;99.90;;;;;;5078789;28;20037;-72
2022/05/20 12:52:22;;;;;;;4.07;2.03;;;13.00;99.90;;;;;;5079280;28;20055;-70
2022/05/20 12:55:11;;;;;;;4.55;1.90;;;13.00;99.90;;;;;;5079434;28;20402;-70
2022/05/20 12:57:47;;;;;;;6.47;2.20;;;13.00;99.90;;;;;;4992146;28;20073;-73
2022/05/20 13:00:16;;;;;;;8.63;2.70;;;12.90;99.90;;;;;;4997507;28;20045;-73
2022/05/20 13:02:54;;;;;;;5.28;2.22;;;12.80;99.90;;;;;;4996248;28;20089;-69
2022/05/20 13:05:36;;;;;;;6.32;2.42;;;12.80;99.90;;;;;;4997475;28;20034;-71
2022/05/20 13:08:10;;;;;;;5.25;2.75;;;12.80;99.90;;;;;;4997635;28;20025;-70
2022/05/20 13:10:39;;;;;;;9.85;3.30;;;12.80;99.90;;;;;;4997070;28;20125;-71
2022/05/20 13:13:11;;;;;;;6.63;2.63;;;12.70;99.90;;;;;;4997087;28;20074;-70
2022/05/20 13:15:47;;;;;;;12.20;2.42;;;12.60;99.90;;;;;;4997478;28;20038;-69
2022/05/20 13:18:25;;;;;;;6.65;1.92;;;12.70;99.90;;;;;;4999549;28;20153;-72
2022/05/20 13:20:56;;;;;;;6.50;2.00;;;12.60;99.90;;;;;;5003327;28;20057;-72
2022/05/20 13:23:32;;;;;;;6.40;1.80;;;12.60;99.90;;;;;;5003198;28;20033;-70
2022/05/20 13:26:00;;;;;;;5.75;1.90;;;12.60;99.90;;;;;;4988177;28;20113;-70
2022/05/20 13:28:30;;;;;;;4.95;2.10;;;12.70;99.90;;;;;;5003509;28;20134;-70
2022/05/20 13:31:11;;;;;;;3.38;1.83;;;12.70;99.90;;;;;;5003825;28;20388;-70
2022/05/20 13:33:43;;;;;;;9.23;2.58;;;12.70;99.90;;;;;;5006380;28;20304;-71
2022/05/20 13:36:17;;;;;;;5.07;2.30;;;12.70;99.90;;;;;;5087621;28;20597;-70
2022/05/20 13:38:51;;;;;;;3.83;1.60;;;12.70;99.90;;;;;;5089371;28;20020;-73
2022/05/20 13:41:27;;;;;;;5.25;1.75;;;12.70;99.90;;;;;;5089847;28;20024;-72
2022/05/20 13:43:55;;;;;;;4.18;1.77;;;12.70;99.90;;;;;;5087831;28;20398;-72
2022/05/20 13:49:25;;;;;;;8.05;1.70;;;12.70;99.90;;;;;;5087863;28;20127;-72
2022/05/20 13:51:54;;;;;;;;;;;12.70;99.90;;;;;;5089335;28;20298;-72
2022/05/20 13:54:29;;;;;;;9.52;1.85;;;12.80;99.90;;;;;;5070754;28;19904;-73
2022/05/20 13:56:56;;;;;;;6.45;1.88;;;12.80;99.90;;;;;;5089363;28;20394;-72
2022/05/20 13:59:25;;;;;;;6.22;1.80;;;12.80;99.90;;;;;;5089610;28;20028;-69
2022/05/20 14:02:02;;;;;;;6.20;2.15;;;12.80;99.90;;;;;;5088864;28;20028;-69
2022/05/20 14:04:49;;;;;;;10.05;2.30;;;12.80;99.90;;;;;;5069486;28;20029;-69
2022/05/20 14:07:32;;;;;;;6.68;2.10;;;12.80;99.90;;;;;;5087302;28;20020;-73
2022/05/20 14:10:30;;;;;;;7.85;2.75;;;12.80;99.90;;;;;;5089018;28;20139;-71
2022/05/20 14:13:09;;;;;;;5.60;2.50;;;12.90;99.90;;;;;;5007264;28;20065;-71
2022/05/20 14:15:56;;;;;;;6.13;2.20;;;12.90;99.90;;;;;;4991624;28;20026;-70
2022/05/20 14:18:38;;;;;;;6.65;2.88;;;12.80;99.90;;;;;;5006323;28;20292;-74
2022/05/20 14:21:14;;;;;;;7.30;2.70;;;12.80;99.90;;;;;;5003929;28;20030;-70
2022/05/20 14:24:16;;;;;;;9.00;3.28;;;12.80;99.90;;;;;;5007093;28;20052;-74
2022/05/20 14:26:52;;;;;;;10.15;4.18;;;12.70;99.90;;;;;;4969850;28;20043;-72
2022/05/20 14:29:41;;;;;;;11.65;5.15;;;12.70;99.90;;;;;;4969499;28;20057;-70
2022/05/20 14:32:15;;;;;;;11.02;4.47;;;12.70;99.90;;;;;;4968543;28;20117;-74
2022/05/20 14:34:41;;;;;;;10.20;4.60;;;12.70;99.90;;;;;;4970281;28;20035;-73
2022/05/20 14:37:17;;;;;;;10.05;3.97;;;12.70;99.90;;;;;;4968026;28;20039;-71
2022/05/20 14:39:58;;;;;;;6.45;4.32;;;12.60;99.90;;;;;;4969212;28;20097;-71
2022/05/20 14:42:33;;;;;;;6.85;3.80;;;12.60;99.90;;;;;;4969664;28;20038;-74
2022/05/20 14:45:04;;;;;;;5.18;3.67;;;12.60;99.90;;;;;;4969938;28;20027;-71
2022/05/20 14:47:37;;;;;;;7.93;3.50;;;12.60;99.90;;;;;;4968340;28;20529;-73
2022/05/20 14:50:14;;;;;;;8.32;3.08;;;12.60;99.90;;;;;;4999420;28;20125;-69
2022/05/20 14:52:46;;;;;;;6.93;3.17;;;12.60;99.90;;;;;;5006495;28;20048;-71
2022/05/20 14:55:28;;;;;;;9.23;2.90;;;12.60;99.90;;;;;;5008173;28;20509;-69
2022/05/20 14:58:04;;;;;;;6.78;2.78;;;12.60;99.90;;;;;;5006412;28;20030;-71
2022/05/20 15:00:32;;;;;;;5.28;3.58;;;12.60;99.90;;;;;;5007204;28;20113;-71
2022/05/20 15:03:01;;;;;;;8.38;3.53;;;12.50;99.90;;;;;;5037783;28;20516;-73
2022/05/20 15:05:31;;;;;;;6.55;3.00;;;12.50;99.90;;;;;;5067451;28;20540;-74
2022/05/20 15:08:03;;;;;;;6.63;3.50;;;12.50;99.90;;;;;;5068071;28;20029;-70
2022/05/20 15:10:31;;;;;;;9.32;3.03;;;12.40;99.90;;;;;;5067865;28;20012;-72
2022/05/20 15:12:59;;;;;;;11.40;3.65;;;12.40;99.90;;;;;;5068678;28;20375;-71
2022/05/20 15:15:26;;;;;;;6.22;3.00;;;12.50;99.90;;;;;;5068573;28;20032;-70
2022/05/20 15:17:59;;;;;;;8.27;3.20;;;12.40;99.90;;;;;;5067936;28;20051;-70
2022/05/20 15:20:28;;;;;;;8.73;3.13;;;12.40;99.90;;;;;;5068396;28;20024;-74
2022/05/20 15:22:56;;;;;;;5.97;3.17;;;12.50;99.90;;;;;;5067264;28;20039;-75
2022/05/20 15:25:24;;;;;;;7.57;2.92;;;12.50;99.90;;;;;;5068088;28;20082;-73
2022/05/20 15:27:51;;;;;;;6.55;2.75;;;12.50;99.90;;;;;;5069471;28;20024;-71
2022/05/20 15:30:18;;;;;;;7.88;3.10;;;12.50;99.90;;;;;;5069105;28;20024;-72
2022/05/20 15:35:30;;;;;;;8.55;2.85;;;12.50;99.90;;;;;;5067076;28;20497;-71
2022/05/20 15:38:01;;;;;;;8.27;3.33;;;12.60;99.90;;;;;;5067498;28;20028;-71
2022/05/20 15:40:30;;;;;;;8.18;3.35;;;12.50;99.90;;;;;;5068755;28;20020;-73
2022/05/20 15:42:58;;;;;;;13.05;4.53;;;12.60;99.90;;;;;;5066521;28;20487;-75
2022/05/20 15:45:27;;;;;;;7.18;3.45;;;12.50;99.90;;;;;;5059732;28;20027;-71
2022/05/20 20:02:45;;;;;;;7.28;1.50;;;12.70;99.90;;;;;;5050657;28;20044;-72
2022/05/20 20:05:12;;;;;;;6.03;1.85;;;12.60;99.90;;;;;;5058922;28;20059;-70
2022/05/20 20:07:39;;;;;;;9.25;2.38;;;12.60;99.90;;;;;;5040938;28;20561;-71
2022/05/20 20:10:07;;;;;;;4.93;2.13;;;12.60;99.90;;;;;;5056959;28;20537;-67
2022/05/20 20:12:35;;;;;;;6.68;1.90;;;12.60;99.90;;;;;;5056669;28;20029;-69
2022/05/20 20:15:03;;;;;;;8.65;1.90;;;12.60;99.90;;;;;;5056884;28;20028;-71
2022/05/20 20:17:30;;;;;;;14.75;2.50;;;12.60;99.90;;;;;;5059196;28;20025;-70
2022/05/20 20:19:57;;;;;;;5.63;2.88;;;12.60;99.90;;;;;;5062462;28;20029;-70
2022/05/20 20:27:55;;;;;;;6.63;2.75;;;12.60;99.90;;;;;;5058953;28;20528;-69
2022/05/20 20:30:22;;;;;;;4.05;2.42;;;12.50;99.90;;;;;;5058639;28;20015;-71
2022/05/20 20:32:50;;;;;;;5.47;1.83;;;12.60;99.90;;;;;;5054952;28;20120;-69
2022/05/20 20:35:17;;;;;;;6.63;2.20;;;12.60;99.90;;;;;;5059396;28;20033;-70
2022/05/20 20:37:44;;;;;;;9.90;3.20;;;12.60;99.90;;;;;;5060650;28;20028;-68
2022/05/20 20:40:13;;;;;;;5.03;2.00;;;12.60;99.90;;;;;;5058888;28;20044;-68
2022/05/20 20:42:41;;;;;;;9.05;2.20;;;12.60;99.90;;;;;;5051715;28;20374;-72
2022/05/20 20:45:09;;;;;;;6.57;2.15;;;12.70;99.90;;;;;;5058056;28;20031;-67
2022/05/20 20:47:36;;;;;;;10.50;1.98;;;12.70;99.90;;;;;;5058902;28;20017;-70
2022/05/20 20:50:04;;;;;;;5.53;1.75;;;12.70;99.90;;;;;;5056345;28;20021;-68
2022/05/20 20:52:31;;;;;;;16.63;2.83;;;12.70;99.90;;;;;;5055680;28;20032;-70
2022/05/20 20:54:58;;;;;;;6.82;1.80;;;12.80;99.90;;;;;;5055456;28;20092;-69
2022/05/20 20:57:25;;;;;;;7.60;3.00;;;12.80;99.90;;;;;;5058283;28;20021;-69
2022/05/20 20:59:52;;;;;;;4.80;1.40;;;12.80;99.90;;;;;;5058664;28;20033;-74
2022/05/20 21:02:19;;;;;;;10.85;2.40;;;12.80;99.90;;;;;;5057623;28;20052;-71
2022/05/20 21:04:46;;;;;;;7.57;1.88;;;12.80;99.90;;;;;;5060183;28;20021;-73
2022/05/20 21:07:13;;;;;;;8.70;2.28;;;12.80;99.90;;;;;;5060198;28;20013;-72
2022/05/20 21:09:55;;;;;;;10.43;2.20;;;12.80;99.90;;;;;;5061103;28;20009;-69
2022/05/20 21:12:23;;;;;;;10.40;2.13;;;12.80;99.90;;;;;;5052931;28;20480;-70